createdAt,value
2022-07-28T00:08:48.492Z,9.57
2022-07-28T00:18:25.433Z,9.39
2022-07-28T00:28:02.194Z,9.32
2022-07-28T00:37:39.906Z,9.12
2022-07-28T00:47:15.678Z,8.93
2022-07-28T00:56:52.539Z,8.73
2022-07-28T01:06:29.503Z,8.78
2022-07-28T01:16:06.640Z,8.55
2022-07-28T01:25:48.102Z,8.51
2022-07-28T01:35:19.883Z,8.31
2022-07-28T01:44:56.820Z,8.1
2022-07-28T01:54:33.474Z,7.96
2022-07-28T02:04:10.400Z,7.64
2022-07-28T02:13:47.276Z,7.89
2022-07-28T02:23:24.063Z,7.83
2022-07-28T02:33:01.290Z,7.64
2022-07-28T02:42:38.460Z,7.59
2022-07-28T02:52:15.152Z,7.39
2022-07-28T03:01:52.111Z,7.41
2022-07-28T03:11:28.832Z,7.45
2022-07-28T03:21:05.895Z,7.44
2022-07-28T03:30:42.927Z,7.43
2022-07-28T03:40:19.794Z,7.38
2022-07-28T03:49:57.174Z,7.32
2022-07-28T03:59:34.332Z,7.57
2022-07-28T04:09:11.887Z,7.79
2022-07-28T04:18:49.474Z,8.05
2022-07-28T04:28:27.019Z,8.33
2022-07-28T04:38:04.966Z,8.83
2022-07-28T04:47:42.567Z,9.12
2022-07-28T04:57:20.135Z,9.46
2022-07-28T05:06:57.908Z,9.91
2022-07-28T05:16:35.463Z,10.32
2022-07-28T05:26:13.460Z,10.74
2022-07-28T05:35:51.697Z,11.22
2022-07-28T05:45:30.143Z,11.52
2022-07-28T05:55:06.704Z,11.72
2022-07-28T06:04:44.579Z,11.92
2022-07-28T06:14:22.283Z,12.47
2022-07-28T06:23:59.557Z,12.74
2022-07-28T06:33:37.063Z,13.2
2022-07-28T06:43:15.088Z,13.77
2022-07-28T06:52:52.790Z,14.15
2022-07-28T07:02:30.560Z,14.47
2022-07-28T07:12:08.332Z,14.98
2022-07-28T07:21:46.342Z,15.25
2022-07-28T07:31:23.883Z,15.7
2022-07-28T07:41:01.263Z,16.04
2022-07-28T07:50:38.591Z,16.25
2022-07-28T08:00:28.363Z,16.63
2022-07-28T08:09:54.258Z,17.12
2022-07-28T08:19:32.135Z,17.64
2022-07-28T08:29:10.144Z,18.01
2022-07-28T08:38:48.215Z,18.27
2022-07-28T08:48:26.910Z,19.04
2022-07-28T08:58:05.892Z,19.79
2022-07-28T09:07:44.426Z,20.15
2022-07-28T09:17:22.933Z,20.27
2022-07-28T09:27:01.597Z,21.86
2022-07-28T09:36:47.869Z,23.17
2022-07-28T09:46:35.670Z,24.13
2022-07-28T09:56:18.839Z,24.14
2022-07-28T10:05:59.649Z,25.19
2022-07-28T10:15:46.795Z,26.06
2022-07-28T10:25:23.778Z,28.09
2022-07-28T10:35:02.434Z,28.13
2022-07-28T10:44:44.330Z,28.39
2022-07-28T10:54:25.883Z,28.14
2022-07-28T11:04:00.683Z,27.15
2022-07-28T11:13:32.857Z,28.09
2022-07-28T11:23:17.048Z,28.64
2022-07-28T11:32:59.273Z,28.8
2022-07-28T11:42:39.453Z,30.24
2022-07-28T11:52:18.285Z,28.23
2022-07-28T12:01:58.617Z,28.44
2022-07-28T12:11:37.265Z,30.75
2022-07-28T12:21:15.042Z,29.75
2022-07-28T12:30:54.217Z,28.38
2022-07-28T12:40:32.165Z,27.36
2022-07-28T12:50:07.096Z,26.51
2022-07-28T12:59:46.165Z,28.92
2022-07-28T13:09:24.123Z,28.03
2022-07-28T13:19:03.832Z,30.59
2022-07-28T13:28:43.235Z,28.61
2022-07-28T13:38:25.180Z,29.63
2022-07-28T13:47:57.620Z,31.31
2022-07-28T13:57:35.916Z,28.56
2022-07-28T14:07:14.496Z,28.42
2022-07-28T14:16:51.883Z,29.61
2022-07-28T14:26:37.924Z,30.88
2022-07-28T14:36:13.699Z,26.76
2022-07-28T14:45:51.294Z,27.88
2022-07-28T14:55:26.654Z,28.89
2022-07-28T15:05:04.831Z,28.89
2022-07-28T15:14:38.949Z,27.56
2022-07-28T15:24:09.128Z,29.62
2022-07-28T15:33:47.978Z,27.25
2022-07-28T15:43:23.681Z,29.35
2022-07-28T15:52:58.150Z,29.32
2022-07-28T16:02:34.998Z,28.17
2022-07-28T16:12:12.844Z,26.61
2022-07-28T16:21:47.319Z,25.62
2022-07-28T16:31:20.380Z,25.16
2022-07-28T16:40:55.540Z,25.65
2022-07-28T16:50:31.664Z,24.87
2022-07-28T17:00:08.462Z,24.66
2022-07-28T17:09:45.485Z,24.21
2022-07-28T17:19:22.428Z,24.41
2022-07-28T17:28:59.408Z,24.25
2022-07-28T17:38:36.018Z,23.96
2022-07-28T17:48:12.525Z,23.64
2022-07-28T17:57:49.470Z,23.1
2022-07-28T18:07:26.382Z,22.84
2022-07-28T18:17:02.470Z,22.41
2022-07-28T18:26:38.909Z,22.14
2022-07-28T18:36:15.855Z,21.82
2022-07-28T18:45:52.624Z,21.09
2022-07-28T18:55:29.145Z,20.91
2022-07-28T19:05:06.083Z,20.57
2022-07-28T19:14:43.095Z,20.15
2022-07-28T19:24:19.883Z,19.6
2022-07-28T19:33:56.307Z,19.29
2022-07-28T19:43:32.867Z,18.79
2022-07-28T19:53:09.736Z,18.31
2022-07-28T20:02:46.030Z,18.15
2022-07-28T20:12:22.247Z,17.81
2022-07-28T20:21:59.327Z,17.72
2022-07-28T20:31:36.574Z,17.41
2022-07-28T20:41:13.676Z,17.52
2022-07-28T20:50:50.864Z,17.26
2022-07-28T21:00:27.775Z,16.85
2022-07-28T21:10:04.364Z,16.82
2022-07-28T21:19:41.400Z,16.6
2022-07-28T21:38:55.547Z,16.47
2022-07-28T21:48:32.533Z,16.39
2022-07-28T21:58:10.117Z,16.53
2022-07-28T22:07:47.646Z,16.49
2022-07-28T22:17:24.935Z,16.6
2022-07-28T22:27:02.154Z,16.41
2022-07-28T22:46:16.669Z,16.37
2022-07-28T22:55:54.413Z,16.59
2022-07-28T23:05:31.571Z,16.4
2022-07-28T23:15:08.787Z,16.53
2022-07-28T23:24:46.022Z,16.36
2022-07-28T23:34:23.707Z,16.7
2022-07-28T23:44:01.277Z,16.5
2022-07-28T23:53:38.402Z,16.34
